createdAt,value
2022-08-17T00:00:34.638Z,17.02
2022-08-17T00:03:10.523Z,14.35
2022-08-17T00:05:58.968Z,15.52
2022-08-17T00:08:35.386Z,13.82
2022-08-17T00:11:15.269Z,16.42
2022-08-17T00:13:51.541Z,19.80
2022-08-17T00:16:50.503Z,18.88
2022-08-17T00:19:25.728Z,17.15
2022-08-17T00:22:34.158Z,18.20
2022-08-17T00:24:43.697Z,17.35
2022-08-17T00:27:10.856Z,15.65
2022-08-17T00:29:38.055Z,17.98
2022-08-17T00:33:11.987Z,17.15
2022-08-17T00:34:52.575Z,18.17
2022-08-17T00:37:19.886Z,20.05
2022-08-17T00:39:47.217Z,12.98
2022-08-17T00:42:16.980Z,22.50
2022-08-17T00:44:44.513Z,20.38
2022-08-17T00:47:14.481Z,18.27
2022-08-17T00:49:41.728Z,16.63
2022-08-17T00:52:16.750Z,19.33
2022-08-17T00:54:47.171Z,23.30
2022-08-17T00:57:35.217Z,20.95
2022-08-17T01:00:12.176Z,20.10
2022-08-17T01:02:44.441Z,22.92
2022-08-17T01:05:25.571Z,26.60
2022-08-17T01:07:54.025Z,25.05
2022-08-17T01:10:57.501Z,26.38
2022-08-17T01:13:15.413Z,27.75
2022-08-17T01:15:57.936Z,26.77
2022-08-17T01:18:26.362Z,28.73
2022-08-17T01:20:57.777Z,24.08
2022-08-17T01:23:27.711Z,33.30
2022-08-17T01:25:57.829Z,30.88
2022-08-17T01:28:33.614Z,35.25
2022-08-17T01:31:15.734Z,28.20
2022-08-17T01:33:43.402Z,26.10
2022-08-17T01:36:10.820Z,32.75
2022-08-17T01:38:38.922Z,29.23
2022-08-17T01:41:12.513Z,26.65
2022-08-17T01:43:51.252Z,26.50
2022-08-17T01:46:37.415Z,27.88
2022-08-17T01:49:11.676Z,28.00
2022-08-17T01:51:39.707Z,21.73
2022-08-17T01:54:12.048Z,22.23
2022-08-17T01:56:47.482Z,20.27
2022-08-17T01:59:16.899Z,16.80
2022-08-17T02:01:44.898Z,18.20
2022-08-17T02:04:12.828Z,25.67
2022-08-17T02:06:53.678Z,20.10
2022-08-17T02:09:29.595Z,22.98
2022-08-17T02:11:59.564Z,24.92
2022-08-17T02:14:27.026Z,21.50
2022-08-17T02:16:54.545Z,22.02
2022-08-17T02:19:22.839Z,17.15
2022-08-17T02:21:52.236Z,14.90
2022-08-17T02:25:00.214Z,13.98
2022-08-17T02:27:13.142Z,14.52
2022-08-17T02:29:40.300Z,12.50
2022-08-17T02:32:20.830Z,13.77
2022-08-17T02:34:55.366Z,16.48
2022-08-17T02:37:22.604Z,14.48
2022-08-17T02:39:49.777Z,13.38
2022-08-17T02:42:16.990Z,15.85
2022-08-17T02:44:44.555Z,14.27
2022-08-17T02:47:12.344Z,15.52
2022-08-17T02:49:39.560Z,14.38
2022-08-17T02:52:08.258Z,15.90
2022-08-17T02:54:40.017Z,14.02
2022-08-17T02:57:10.212Z,16.13
2022-08-17T02:59:48.847Z,15.57
2022-08-17T03:02:16.411Z,15.43
2022-08-17T03:04:43.625Z,13.30
2022-08-17T03:07:10.893Z,17.67
2022-08-17T03:09:39.047Z,15.50
2022-08-17T03:12:11.238Z,14.57
2022-08-17T03:14:43.166Z,20.00
2022-08-17T03:17:15.214Z,15.05
2022-08-17T03:19:45.067Z,19.17
2022-08-17T03:22:35.877Z,14.18
2022-08-17T03:25:02.176Z,19.95
2022-08-17T03:27:31.535Z,17.42
2022-08-17T03:29:58.704Z,17.77
2022-08-17T03:32:25.903Z,26.25
2022-08-17T03:34:58.451Z,22.92
2022-08-17T03:37:25.637Z,21.83
2022-08-17T03:39:54.598Z,24.23
2022-08-17T03:42:32.187Z,24.50
2022-08-17T03:45:01.691Z,22.83
2022-08-17T03:47:49.480Z,25.30
2022-08-17T03:50:35.972Z,27.10
2022-08-17T03:53:26.227Z,30.25
2022-08-17T03:56:11.898Z,24.73
2022-08-17T03:58:39.223Z,27.63
2022-08-17T04:01:07.184Z,26.42
2022-08-17T04:03:34.580Z,26.30
2022-08-17T04:06:02.430Z,30.15
2022-08-17T04:08:30.634Z,30.40
2022-08-17T04:10:58.939Z,28.88
2022-08-17T04:13:26.534Z,31.27
2022-08-17T04:15:54.225Z,31.95
2022-08-17T04:18:21.501Z,26.55
2022-08-17T04:20:48.762Z,28.20
2022-08-17T04:23:18.638Z,33.55
2022-08-17T04:25:49.414Z,33.75
2022-08-17T04:28:18.771Z,29.58
2022-08-17T04:30:47.572Z,33.10
2022-08-17T04:33:18.737Z,33.17
2022-08-17T04:35:55.878Z,34.60
2022-08-17T04:38:29.234Z,31.05
2022-08-17T04:41:16.931Z,32.97
2022-08-17T04:43:46.447Z,32.78
2022-08-17T04:46:19.327Z,29.67
2022-08-17T04:48:52.074Z,28.13
2022-08-17T04:51:25.149Z,36.08
2022-08-17T04:53:55.237Z,29.23
2022-08-17T04:56:24.145Z,30.52
2022-08-17T04:58:53.260Z,30.85
2022-08-17T05:01:23.359Z,28.08
2022-08-17T05:03:56.983Z,35.23
2022-08-17T05:06:24.305Z,35.58
2022-08-17T05:08:51.635Z,30.98
2022-08-17T05:11:19.003Z,34.30
2022-08-17T05:13:46.460Z,31.38
2022-08-17T05:16:13.698Z,38.15
2022-08-17T05:18:40.965Z,35.15
2022-08-17T05:21:08.453Z,36.28
2022-08-17T05:23:42.813Z,39.53
2022-08-17T05:26:26.387Z,41.55
2022-08-17T05:28:59.501Z,36.08
2022-08-17T05:31:29.633Z,41.25
2022-08-17T05:33:57.012Z,39.88
2022-08-17T05:36:41.985Z,40.90
2022-08-17T05:39:16.694Z,48.00
2022-08-17T05:41:46.767Z,44.10
2022-08-17T05:44:14.083Z,44.65
2022-08-17T05:46:45.770Z,46.65
2022-08-17T05:49:16.251Z,48.28
2022-08-17T05:51:46.294Z,38.13
2022-08-17T05:54:33.768Z,45.08
2022-08-17T05:57:30.090Z,41.60
2022-08-17T06:00:14.606Z,39.25
2022-08-17T06:02:54.400Z,41.42
2022-08-17T06:05:32.679Z,36.70
2022-08-17T06:08:44.698Z,39.55
2022-08-17T06:11:20.456Z,35.40
2022-08-17T06:14:08.249Z,38.03
2022-08-17T06:16:39.803Z,34.22
2022-08-17T06:19:16.205Z,32.20
2022-08-17T06:21:47.380Z,31.05
2022-08-17T06:24:37.933Z,34.80
2022-08-17T06:27:36.229Z,30.20
2022-08-17T06:30:15.643Z,32.50
2022-08-17T06:32:45.304Z,31.75
2022-08-17T06:35:16.215Z,32.60
2022-08-17T06:37:59.502Z,26.90
2022-08-17T06:40:49.297Z,27.15
2022-08-17T06:43:44.052Z,24.58
2022-08-17T06:46:39.140Z,27.85
2022-08-17T06:49:12.718Z,35.00
2022-08-17T06:51:43.911Z,25.52
2022-08-17T06:54:45.866Z,27.95
2022-08-17T06:57:15.913Z,27.98
2022-08-17T07:00:07.610Z,31.85
2022-08-17T07:03:06.540Z,27.50
2022-08-17T07:05:40.041Z,27.88
2022-08-17T07:08:25.367Z,21.65
2022-08-17T07:11:03.515Z,26.55
2022-08-17T07:13:51.690Z,24.48
2022-08-17T07:16:31.156Z,25.83
2022-08-17T07:18:59.568Z,20.33
2022-08-17T07:21:56.060Z,26.80
2022-08-17T07:24:30.086Z,18.35
2022-08-17T07:27:04.069Z,21.27
2022-08-17T07:29:35.466Z,19.25
2022-08-17T07:32:02.985Z,23.38
2022-08-17T07:34:30.233Z,32.65
2022-08-17T07:37:05.474Z,22.38
2022-08-17T07:39:32.825Z,27.98
2022-08-17T07:42:04.655Z,26.13
2022-08-17T07:44:46.848Z,19.88
2022-08-17T07:47:35.610Z,17.90
2022-08-17T07:50:03.452Z,19.08
2022-08-17T07:52:50.463Z,18.05
2022-08-17T07:55:31.521Z,16.42
2022-08-17T07:58:00.259Z,17.35
2022-08-17T08:00:32.793Z,18.52
2022-08-17T08:03:04.621Z,21.52
2022-08-17T08:05:49.973Z,16.83
2022-08-17T08:08:42.447Z,19.23
2022-08-17T08:11:28.400Z,12.82
2022-08-17T08:13:55.701Z,17.73
2022-08-17T08:16:29.833Z,12.95
2022-08-17T08:19:01.365Z,11.30
2022-08-17T08:21:31.488Z,15.60
2022-08-17T08:24:04.711Z,15.48
2022-08-17T08:26:40.803Z,11.20
2022-08-17T08:29:32.527Z,10.18
2022-08-17T08:32:20.668Z,10.32
2022-08-17T08:35:02.006Z,9.95
2022-08-17T08:37:42.654Z,8.38
2022-08-17T08:40:24.895Z,6.15
2022-08-17T08:43:14.970Z,8.45
2022-08-17T08:46:03.642Z,14.88
2022-08-17T08:49:06.580Z,12.63
2022-08-17T08:51:45.556Z,10.70
2022-08-17T08:54:50.738Z,7.40
2022-08-17T08:57:36.656Z,8.13
2022-08-17T09:00:19.188Z,13.18
2022-08-17T09:03:08.690Z,9.25
2022-08-17T09:05:54.277Z,10.15
2022-08-17T09:08:47.833Z,12.80
2022-08-17T09:11:34.527Z,8.32
2022-08-17T09:14:31.430Z,13.35
2022-08-17T09:17:31.733Z,12.82
2022-08-17T09:20:27.458Z,6.63
2022-08-17T09:23:08.066Z,11.13
2022-08-17T09:25:49.942Z,11.98
2022-08-17T09:28:20.399Z,7.15
2022-08-17T09:30:52.013Z,8.85
2022-08-17T09:33:28.729Z,12.32
2022-08-17T09:36:04.816Z,7.45
2022-08-17T09:38:41.783Z,5.68
2022-08-17T09:41:11.698Z,8.35
2022-08-17T09:43:56.794Z,8.07
2022-08-17T09:46:41.832Z,5.97
2022-08-17T09:49:21.852Z,10.38
2022-08-17T09:52:10.066Z,11.10
2022-08-17T09:54:40.793Z,7.93
2022-08-17T09:57:59.145Z,6.78
2022-08-17T10:00:34.787Z,8.00
2022-08-17T10:03:19.414Z,7.68
2022-08-17T10:06:06.862Z,10.80
2022-08-17T10:08:48.050Z,10.48
2022-08-17T10:11:55.836Z,12.00
2022-08-17T10:14:44.681Z,5.97
2022-08-17T10:17:26.498Z,7.28
2022-08-17T10:20:03.334Z,11.70
2022-08-17T10:23:02.176Z,11.05
2022-08-17T10:25:55.102Z,7.57
2022-08-17T10:28:30.338Z,7.78
2022-08-17T10:31:33.197Z,11.18
2022-08-17T10:37:12.761Z,9.60
2022-08-17T10:39:52.959Z,7.13
2022-08-17T10:42:43.803Z,11.43
2022-08-17T10:45:27.097Z,8.27
2022-08-17T10:48:05.853Z,7.15
2022-08-17T10:50:47.620Z,6.68
2022-08-17T10:53:33.329Z,7.72
2022-08-17T10:56:12.859Z,6.57
2022-08-17T10:59:00.863Z,9.20
2022-08-17T11:01:34.269Z,10.98
2022-08-17T11:04:18.928Z,9.45
2022-08-17T11:07:02.143Z,8.55
2022-08-17T11:09:57.067Z,9.80
2022-08-17T11:12:27.116Z,10.85
2022-08-17T11:15:33.739Z,8.40
2022-08-17T11:18:25.787Z,17.42
2022-08-17T11:21:13.321Z,7.25
2022-08-17T11:24:06.256Z,13.00
2022-08-17T11:26:35.967Z,11.20
2022-08-17T11:29:10.384Z,14.00
2022-08-17T11:31:46.652Z,9.95
2022-08-17T11:34:26.574Z,7.35
2022-08-17T11:37:35.650Z,9.63
2022-08-17T11:40:21.965Z,10.63
2022-08-17T11:42:49.284Z,12.68
2022-08-17T11:45:39.767Z,12.32
2022-08-17T11:48:54.981Z,12.18
2022-08-17T11:51:43.749Z,13.60
2022-08-17T11:54:33.668Z,15.77
2022-08-17T11:57:29.241Z,12.98
2022-08-17T12:00:15.076Z,8.07
2022-08-17T12:02:48.396Z,12.20
2022-08-17T12:05:24.969Z,19.65
2022-08-17T12:08:04.610Z,14.82
2022-08-17T12:10:35.862Z,15.57
2022-08-17T12:13:11.379Z,14.60
2022-08-17T12:15:48.852Z,14.73
2022-08-17T12:18:29.560Z,14.10
2022-08-17T12:21:34.645Z,11.90
2022-08-17T12:24:31.397Z,10.23
2022-08-17T12:27:01.540Z,15.27
2022-08-17T12:29:35.466Z,14.52
2022-08-17T12:32:07.262Z,14.82
2022-08-17T12:34:40.964Z,15.40
2022-08-17T12:37:22.749Z,17.75
2022-08-17T12:40:04.095Z,10.75
2022-08-17T12:42:37.899Z,13.55
2022-08-17T12:45:22.742Z,13.90
2022-08-17T12:48:07.838Z,13.57
2022-08-17T12:50:37.291Z,17.20
2022-08-17T12:53:15.899Z,11.48
2022-08-17T12:55:44.438Z,15.20
2022-08-17T12:58:14.654Z,11.88
2022-08-17T13:00:49.035Z,15.07
2022-08-17T13:03:21.858Z,13.55
2022-08-17T13:05:59.814Z,21.08
2022-08-17T13:08:44.873Z,13.98
2022-08-17T13:11:16.353Z,13.98
2022-08-17T13:13:46.621Z,10.70
2022-08-17T13:16:14.583Z,19.15
2022-08-17T13:18:53.991Z,16.88
2022-08-17T13:21:23.909Z,20.08
2022-08-17T13:24:10.809Z,19.13
2022-08-17T13:26:45.101Z,14.82
2022-08-17T13:29:32.593Z,12.65
2022-08-17T13:32:13.527Z,12.90
2022-08-17T13:35:13.524Z,12.15
2022-08-17T13:38:07.164Z,11.13
2022-08-17T13:40:54.989Z,13.48
2022-08-17T13:44:02.794Z,13.55
2022-08-17T13:46:32.881Z,12.52
2022-08-17T13:49:11.803Z,12.32
2022-08-17T13:51:44.976Z,10.98
2022-08-17T13:54:32.362Z,12.82
2022-08-17T13:57:22.574Z,12.48
2022-08-17T13:59:55.906Z,11.90
2022-08-17T14:02:25.894Z,15.15
2022-08-17T14:04:55.488Z,14.40
2022-08-17T14:07:37.433Z,10.55
2022-08-17T14:10:15.193Z,13.75
2022-08-17T14:12:43.829Z,8.43
2022-08-17T14:15:13.403Z,12.55
2022-08-17T14:17:40.700Z,10.55
2022-08-17T14:20:11.906Z,10.85
2022-08-17T14:22:47.017Z,9.85
2022-08-17T14:25:18.801Z,10.63
2022-08-17T14:27:52.965Z,8.82
2022-08-17T14:30:26.907Z,8.05
2022-08-17T14:32:58.149Z,6.50
2022-08-17T14:35:28.057Z,7.90
2022-08-17T14:37:56.327Z,13.02
2022-08-17T14:40:25.312Z,13.30
2022-08-17T14:42:55.284Z,9.27
2022-08-17T14:45:31.838Z,7.35
2022-08-17T14:48:04.350Z,8.63
2022-08-17T14:50:32.176Z,10.02
2022-08-17T14:53:05.299Z,11.90
2022-08-17T14:55:32.801Z,12.48
2022-08-17T14:58:00.030Z,9.35
2022-08-17T15:00:27.388Z,10.52
2022-08-17T15:02:58.382Z,10.45
2022-08-17T15:05:31.699Z,12.88
2022-08-17T15:08:01.105Z,8.60
2022-08-17T15:10:29.389Z,9.52
2022-08-17T15:12:56.945Z,9.70
2022-08-17T15:15:24.410Z,8.90
2022-08-17T15:17:51.830Z,6.70
2022-08-17T15:20:25.345Z,8.38
2022-08-17T15:22:56.199Z,11.88
2022-08-17T15:25:25.820Z,13.68
2022-08-17T15:27:54.148Z,16.88
2022-08-17T15:30:22.003Z,8.02
2022-08-17T15:32:54.768Z,8.43
2022-08-17T15:35:29.940Z,10.93
2022-08-17T15:38:09.734Z,9.35
2022-08-17T15:40:42.358Z,8.40
2022-08-17T15:43:13.270Z,7.55
2022-08-17T15:45:40.693Z,11.98
2022-08-17T15:48:08.236Z,9.13
2022-08-17T15:50:35.931Z,14.10
2022-08-17T15:53:05.038Z,13.60
2022-08-17T15:55:34.082Z,11.48
2022-08-17T15:58:01.624Z,14.57
2022-08-17T16:00:29.591Z,14.95
2022-08-17T16:03:45.712Z,14.32
2022-08-17T16:05:47.603Z,14.48
2022-08-17T16:08:20.178Z,13.80
2022-08-17T16:10:49.549Z,10.30
2022-08-17T16:13:18.437Z,11.55
2022-08-17T16:15:57.247Z,14.25
2022-08-17T16:18:28.374Z,10.93
2022-08-17T16:20:55.934Z,11.80
2022-08-17T16:23:23.202Z,16.50
2022-08-17T16:25:53.534Z,14.35
2022-08-17T16:28:30.908Z,11.00
2022-08-17T16:31:05.766Z,16.20
2022-08-17T16:36:03.005Z,13.80
2022-08-17T16:38:30.345Z,10.85
2022-08-17T16:40:57.620Z,11.10
2022-08-17T16:43:25.521Z,12.73
2022-08-17T16:45:52.983Z,11.25
2022-08-17T16:48:20.184Z,11.75
2022-08-17T16:51:02.933Z,10.55
2022-08-17T16:53:33.295Z,10.98
2022-08-17T16:56:03.734Z,11.52
2022-08-17T16:58:33.670Z,12.57
2022-08-17T17:01:00.913Z,15.18
2022-08-17T17:03:29.758Z,11.65
2022-08-17T17:06:13.736Z,11.90
2022-08-17T17:08:48.495Z,13.05
2022-08-17T17:11:22.035Z,16.15
2022-08-17T17:13:58.533Z,15.27
2022-08-17T17:16:28.743Z,19.15
2022-08-17T17:19:10.503Z,15.25
2022-08-17T17:21:52.033Z,16.37
2022-08-17T17:24:49.957Z,14.40
2022-08-17T17:27:37.202Z,13.30
2022-08-17T17:30:40.146Z,14.50
2022-08-17T17:33:11.793Z,20.55
2022-08-17T17:35:54.841Z,14.57
2022-08-17T17:38:29.243Z,15.50
2022-08-17T17:41:13.318Z,15.82
2022-08-17T17:43:41.437Z,15.43
2022-08-17T17:46:27.333Z,21.10
2022-08-17T17:48:57.730Z,16.67
2022-08-17T17:52:08.810Z,13.60
2022-08-17T17:54:46.717Z,22.00
2022-08-17T17:57:35.368Z,20.23
2022-08-17T18:00:39.446Z,13.18
2022-08-17T18:03:18.334Z,16.08
2022-08-17T18:06:10.749Z,20.45
2022-08-17T18:08:46.969Z,18.58
2022-08-17T18:11:34.920Z,12.65
2022-08-17T18:14:14.445Z,14.23
2022-08-17T18:16:43.449Z,14.93
2022-08-17T18:19:22.649Z,14.77
2022-08-17T18:21:56.167Z,11.93
2022-08-17T18:24:33.613Z,16.52
2022-08-17T18:27:08.681Z,11.45
2022-08-17T18:29:45.747Z,13.98
2022-08-17T18:32:24.550Z,14.30
2022-08-17T18:34:58.428Z,16.35
2022-08-17T18:37:33.620Z,14.18
2022-08-17T18:40:20.746Z,10.68
2022-08-17T18:42:59.382Z,14.52
2022-08-17T18:45:33.679Z,18.75
2022-08-17T18:48:01.969Z,12.50
2022-08-17T18:50:41.456Z,17.55
2022-08-17T18:53:34.321Z,14.55
2022-08-17T18:56:41.738Z,16.63
2022-08-17T18:59:35.070Z,17.48
2022-08-17T19:02:27.375Z,14.35
2022-08-17T19:05:27.325Z,17.48
2022-08-17T19:08:13.841Z,12.43
2022-08-17T19:10:46.560Z,14.48
2022-08-17T19:13:24.079Z,15.45
2022-08-17T19:16:07.804Z,16.67
2022-08-17T19:18:48.549Z,12.25
2022-08-17T19:21:20.949Z,15.55
2022-08-17T19:26:53.450Z,15.85
2022-08-17T19:29:47.066Z,14.70
2022-08-17T19:32:18.368Z,14.65
2022-08-17T19:34:48.449Z,20.67
2022-08-17T19:37:42.221Z,17.80
2022-08-17T19:40:51.873Z,14.73
2022-08-17T19:43:58.110Z,11.77
2022-08-17T19:46:56.236Z,14.13
2022-08-17T19:49:46.748Z,15.90
2022-08-17T19:52:49.469Z,13.30
2022-08-17T19:55:47.157Z,10.45
2022-08-17T19:58:53.819Z,11.88
2022-08-17T20:01:47.270Z,10.73
2022-08-17T20:04:40.197Z,10.05
2022-08-17T20:07:27.238Z,15.13
2022-08-17T20:10:02.622Z,13.40
2022-08-17T20:12:37.070Z,10.95
2022-08-17T20:15:24.583Z,12.77
2022-08-17T20:17:52.462Z,8.73
2022-08-17T20:20:29.871Z,10.45
2022-08-17T20:23:28.684Z,13.85
2022-08-17T20:25:58.789Z,12.43
2022-08-17T20:28:30.569Z,13.40
2022-08-17T20:30:58.871Z,10.57
2022-08-17T20:33:34.213Z,13.77
2022-08-17T20:36:16.555Z,9.63
2022-08-17T20:38:48.178Z,17.58
2022-08-17T20:41:22.447Z,13.48
2022-08-17T20:44:02.160Z,12.30
2022-08-17T20:46:38.421Z,9.93
2022-08-17T20:49:08.603Z,11.55
2022-08-17T20:52:01.289Z,10.73
2022-08-17T20:54:50.900Z,12.57
2022-08-17T20:57:36.210Z,11.20
2022-08-17T21:00:33.462Z,16.17
2022-08-17T21:03:40.004Z,14.02
2022-08-17T21:07:32.962Z,16.83
2022-08-17T21:10:23.568Z,9.35
2022-08-17T21:13:02.759Z,16.33
2022-08-17T21:15:39.387Z,13.77
2022-08-17T21:18:38.729Z,17.15
2022-08-17T21:22:01.585Z,9.68
2022-08-17T21:24:38.042Z,11.13
2022-08-17T21:27:41.116Z,14.95
2022-08-17T21:32:39.736Z,19.58
2022-08-17T21:35:25.304Z,15.55
2022-08-17T21:38:04.507Z,11.30
2022-08-17T21:40:33.348Z,12.05
2022-08-17T21:43:23.675Z,14.00
2022-08-17T21:45:58.993Z,12.93
2022-08-17T21:48:28.608Z,16.38
2022-08-17T21:51:11.091Z,13.60
2022-08-17T21:53:50.858Z,10.85
2022-08-17T21:56:28.554Z,11.82
2022-08-17T21:59:21.826Z,15.60
2022-08-17T22:01:59.336Z,19.38
2022-08-17T22:04:41.914Z,11.75
2022-08-17T22:07:14.174Z,14.25
2022-08-17T22:09:47.530Z,13.90
2022-08-17T22:12:24.262Z,11.57
2022-08-17T22:15:01.393Z,13.48
2022-08-17T22:17:35.539Z,26.13
2022-08-17T22:20:17.098Z,11.88
2022-08-17T22:23:09.227Z,14.13
2022-08-17T22:25:57.580Z,11.57
2022-08-17T22:29:04.514Z,10.63
2022-08-17T22:31:56.342Z,13.30
2022-08-17T22:34:24.408Z,13.57
2022-08-17T22:37:27.214Z,12.88
2022-08-17T22:39:59.344Z,11.15
2022-08-17T22:42:28.718Z,9.32
2022-08-17T22:44:59.116Z,16.13
2022-08-17T22:47:26.490Z,12.48
2022-08-17T22:50:00.413Z,11.48
2022-08-17T22:53:02.300Z,11.57
2022-08-17T22:55:52.297Z,12.73
2022-08-17T22:58:42.462Z,17.17
2022-08-17T23:01:42.905Z,17.55
2022-08-17T23:04:30.565Z,16.42
2022-08-17T23:06:57.837Z,13.23
2022-08-17T23:09:24.993Z,16.05
2022-08-17T23:11:58.879Z,15.32
2022-08-17T23:14:31.670Z,14.02
2022-08-17T23:16:59.466Z,15.73
2022-08-17T23:19:28.484Z,13.60
2022-08-17T23:21:57.354Z,16.60
2022-08-17T23:24:28.522Z,15.45
2022-08-17T23:26:59.990Z,13.80
2022-08-17T23:29:29.542Z,13.63
2022-08-17T23:32:00.095Z,11.98
2022-08-17T23:34:28.727Z,14.27
2022-08-17T23:36:56.344Z,14.38
2022-08-17T23:39:27.344Z,16.45
2022-08-17T23:42:00.392Z,14.48
2022-08-17T23:44:28.958Z,12.68
2022-08-17T23:46:56.319Z,12.75
2022-08-17T23:49:25.190Z,14.23
2022-08-17T23:51:55.237Z,14.90
2022-08-17T23:54:35.635Z,16.30
2022-08-17T23:57:04.922Z,13.85
2022-08-17T23:59:34.003Z,15.63
